Terminal Aerodrome Forecast
Issued by NWS

Home | Current Version | Previous Version | Text Only | Print | Product List | Glossary On
Versions: 1 2 3 4 5 6 7 8 9 10 11 12 13 14 15 16 17 18 19 20 21 22 23
000
FTUS41 KALY 311100
TAFPSF
TAF
KPSF 311120Z 3112/0112 31012G17KT P6SM SCT035
     FM311400 31015G25KT P6SM FEW040
     FM312300 30012G17KT P6SM FEW035 SCT050
     FM010400 29007KT P6SM SCT025 BKN040
     FM010800 27004KT P6SM VCSH BKN015 OVC025=

USA.gov is the U.S. government's official web portal to all federal, state and local government web resources and services.